createdAt,value
2023-04-24T00:01:16.187Z,14.63
2023-04-24T00:03:43.616Z,14.77
2023-04-24T00:06:11.146Z,16.08
2023-04-24T00:08:38.516Z,13.88
2023-04-24T00:11:06.001Z,13.02
2023-04-24T00:13:33.369Z,12.23
2023-04-24T00:16:00.796Z,12.27
2023-04-24T00:18:28.227Z,16.05
2023-04-24T00:20:55.935Z,12.43
2023-04-24T00:23:23.396Z,15.30
2023-04-24T00:25:50.841Z,13.38
2023-04-24T00:28:18.135Z,10.93
2023-04-24T00:30:45.715Z,11.63
2023-04-24T00:33:13.101Z,13.35
2023-04-24T00:35:41.035Z,13.60
2023-04-24T00:38:08.417Z,15.40
2023-04-24T00:40:35.959Z,13.73
2023-04-24T00:43:03.298Z,17.00
2023-04-24T00:45:32.396Z,14.60
2023-04-24T00:47:59.825Z,14.68
2023-04-24T00:50:27.615Z,12.23
2023-04-24T00:52:55.068Z,14.80
2023-04-24T00:55:22.802Z,13.80
2023-04-24T00:57:50.506Z,17.90
2023-04-24T01:00:18.112Z,15.30
2023-04-24T01:02:46.631Z,19.58
2023-04-24T01:05:14.858Z,15.05
2023-04-24T01:07:46.846Z,16.38
2023-04-24T01:10:15.115Z,14.75
2023-04-24T01:17:01.444Z,12.18
2023-04-24T01:19:29.478Z,14.05
2023-04-24T01:21:59.964Z,12.00
2023-04-24T01:24:27.455Z,11.02
2023-04-24T01:26:54.944Z,11.55
2023-04-24T01:29:22.452Z,12.20
2023-04-24T01:31:49.874Z,12.20
2023-04-24T01:34:18.169Z,10.50
2023-04-24T01:36:47.660Z,10.88
2023-04-24T01:39:16.690Z,11.70
2023-04-24T01:41:44.230Z,12.27
2023-04-24T01:44:12.358Z,11.60
2023-04-24T01:46:39.920Z,10.07
2023-04-24T01:49:07.560Z,13.35
2023-04-24T01:51:34.922Z,12.00
2023-04-24T01:54:02.368Z,10.95
2023-04-24T01:56:35.045Z,18.27
2023-04-24T01:59:02.853Z,11.63
2023-04-24T02:01:34.726Z,11.30
2023-04-24T02:04:02.237Z,11.43
2023-04-24T02:06:29.980Z,14.18
2023-04-24T02:08:57.360Z,13.02
2023-04-24T02:11:24.862Z,11.40
2023-04-24T02:13:52.758Z,11.13
2023-04-24T02:16:20.230Z,9.90
2023-04-24T02:18:47.803Z,10.13
2023-04-24T02:21:15.257Z,10.98
2023-04-24T02:23:43.134Z,12.23
2023-04-24T02:26:10.848Z,12.27
2023-04-24T02:28:38.341Z,13.15
2023-04-24T02:31:07.302Z,10.77
2023-04-24T02:33:35.020Z,10.82
2023-04-24T02:36:02.412Z,10.48
2023-04-24T02:38:29.972Z,10.60
2023-04-24T02:40:57.349Z,11.20
2023-04-24T02:43:27.357Z,10.38
2023-04-24T02:45:54.939Z,11.40
2023-04-24T02:48:22.405Z,14.55
2023-04-24T02:50:49.768Z,10.25
2023-04-24T02:53:17.237Z,9.05
2023-04-24T02:55:44.867Z,10.82
2023-04-24T03:02:31.110Z,13.20
2023-04-24T03:04:58.674Z,10.60
2023-04-24T03:07:26.126Z,10.77
2023-04-24T03:09:53.592Z,9.88
2023-04-24T03:16:38.922Z,11.85
2023-04-24T03:19:07.931Z,10.40
2023-04-24T03:21:42.512Z,14.55
2023-04-24T03:24:10.695Z,10.50
2023-04-24T03:26:38.962Z,11.50
2023-04-24T03:29:18.955Z,10.63
2023-04-24T03:31:46.521Z,9.27
2023-04-24T03:34:14.231Z,10.00
2023-04-24T03:36:41.762Z,10.18
2023-04-24T03:39:09.968Z,9.85
2023-04-24T03:41:39.650Z,9.57
2023-04-24T03:44:13.634Z,10.95
2023-04-24T03:46:41.981Z,11.20
2023-04-24T03:49:10.392Z,9.63
2023-04-24T03:51:41.957Z,11.00
2023-04-24T03:54:18.735Z,10.57
2023-04-24T03:56:47.039Z,9.98
2023-04-24T03:59:14.599Z,14.20
2023-04-24T04:01:46.524Z,10.10
2023-04-24T04:04:16.820Z,11.00
2023-04-24T04:06:45.905Z,10.98
2023-04-24T04:09:13.411Z,11.07
2023-04-24T04:11:41.202Z,17.20
2023-04-24T04:14:08.663Z,15.35
2023-04-24T04:16:39.860Z,18.08
2023-04-24T04:19:08.560Z,12.52
2023-04-24T04:21:36.054Z,15.05
2023-04-24T04:24:13.968Z,12.55
2023-04-24T04:26:48.121Z,15.25
2023-04-24T04:29:25.033Z,17.17
2023-04-24T04:31:53.680Z,14.95
2023-04-24T04:34:22.230Z,17.60
2023-04-24T04:36:51.539Z,20.10
2023-04-24T04:39:32.224Z,18.80
2023-04-24T04:42:02.506Z,19.83
2023-04-24T04:44:37.520Z,22.50
2023-04-24T04:47:06.596Z,18.02
2023-04-24T04:49:37.041Z,18.92
2023-04-24T04:52:07.948Z,19.95
2023-04-24T04:54:35.605Z,21.60
2023-04-24T04:57:04.339Z,26.45
2023-04-24T04:59:32.710Z,20.05
2023-04-24T05:02:06.110Z,13.23
2023-04-24T05:04:33.836Z,19.30
2023-04-24T05:07:01.630Z,23.55
2023-04-24T05:09:32.458Z,22.48
2023-04-24T05:12:03.994Z,19.23
2023-04-24T05:14:35.785Z,20.67
2023-04-24T05:17:03.989Z,22.42
2023-04-24T05:19:37.078Z,21.90
2023-04-24T05:22:07.661Z,20.58
2023-04-24T05:24:40.033Z,18.42
2023-04-24T05:27:29.194Z,19.45
2023-04-24T05:29:56.820Z,16.88
2023-04-24T05:32:24.741Z,15.10
2023-04-24T05:34:52.272Z,15.85
2023-04-24T05:37:20.570Z,13.65
2023-04-24T05:39:48.344Z,16.23
2023-04-24T05:42:15.904Z,18.58
2023-04-24T05:44:43.422Z,16.70
2023-04-24T05:47:10.984Z,18.00
2023-04-24T05:49:38.421Z,15.63
2023-04-24T05:52:09.944Z,17.00
2023-04-24T05:54:39.365Z,12.95
2023-04-24T05:57:08.853Z,18.08
2023-04-24T06:04:08.093Z,20.75
2023-04-24T06:06:36.685Z,30.35
2023-04-24T06:09:06.049Z,26.25
2023-04-24T06:11:33.608Z,22.50
2023-04-24T06:18:11.536Z,21.67
2023-04-24T06:20:40.528Z,20.60
2023-04-24T06:23:10.119Z,19.33
2023-04-24T06:25:37.903Z,22.48
2023-04-24T06:28:05.845Z,23.33
2023-04-24T06:30:33.444Z,18.20
2023-04-24T06:33:09.269Z,18.40
2023-04-24T06:35:46.440Z,22.60
2023-04-24T06:38:13.863Z,16.77
2023-04-24T06:40:41.581Z,21.45
2023-04-24T06:43:08.928Z,21.35
2023-04-24T06:45:36.257Z,25.05
2023-04-24T06:48:04.083Z,24.58
2023-04-24T06:50:31.764Z,23.88
2023-04-24T06:52:59.167Z,13.38
2023-04-24T06:55:26.698Z,10.10
2023-04-24T06:57:54.141Z,10.77
2023-04-24T07:00:21.918Z,11.52
2023-04-24T07:02:49.541Z,10.43
2023-04-24T07:05:20.954Z,10.88
2023-04-24T07:07:52.328Z,11.80
2023-04-24T07:10:19.909Z,9.93
2023-04-24T07:12:48.072Z,8.65
2023-04-24T07:15:15.705Z,9.65
2023-04-24T07:17:45.673Z,12.43
2023-04-24T07:20:15.414Z,8.98
2023-04-24T07:22:42.912Z,8.40
2023-04-24T07:25:10.518Z,8.30
2023-04-24T07:27:38.000Z,13.05
2023-04-24T07:34:13.842Z,11.88
2023-04-24T07:36:42.609Z,10.32
2023-04-24T07:39:10.281Z,9.30
2023-04-24T07:41:37.658Z,10.90
2023-04-24T07:44:05.106Z,9.80
2023-04-24T07:46:32.726Z,8.73
2023-04-24T07:49:12.336Z,13.38
2023-04-24T07:51:41.296Z,12.80
2023-04-24T07:54:08.738Z,8.90
2023-04-24T07:56:40.047Z,8.30
2023-04-24T07:59:08.141Z,8.30
2023-04-24T08:01:35.588Z,9.23
2023-04-24T08:04:03.460Z,10.25
2023-04-24T08:06:31.709Z,10.20
2023-04-24T08:08:59.956Z,9.48
2023-04-24T08:11:27.899Z,9.30
2023-04-24T08:13:56.194Z,7.30
2023-04-24T08:16:25.313Z,8.68
2023-04-24T08:18:53.268Z,9.35
2023-04-24T08:21:21.725Z,9.75
2023-04-24T08:23:49.342Z,13.27
2023-04-24T08:26:16.760Z,11.13
2023-04-24T08:28:44.322Z,10.30
2023-04-24T08:31:11.795Z,7.05
2023-04-24T08:33:39.166Z,11.63
2023-04-24T08:36:07.250Z,8.27
2023-04-24T08:38:35.084Z,8.38
2023-04-24T08:41:12.762Z,8.98
2023-04-24T08:43:40.720Z,11.18
2023-04-24T08:46:11.151Z,8.57
2023-04-24T08:48:40.073Z,8.20
2023-04-24T08:51:11.086Z,11.73
2023-04-24T08:53:38.734Z,8.80
2023-04-24T08:56:06.295Z,8.38
2023-04-24T08:58:33.745Z,9.50
2023-04-24T09:01:01.723Z,9.50
2023-04-24T09:03:30.912Z,10.35
2023-04-24T09:05:59.253Z,8.65
2023-04-24T09:08:27.615Z,10.25
2023-04-24T09:10:55.241Z,7.68
2023-04-24T09:13:22.835Z,10.20
2023-04-24T09:15:50.245Z,9.95
2023-04-24T09:18:17.824Z,9.13
2023-04-24T09:21:03.949Z,8.15
2023-04-24T09:23:32.685Z,8.65
2023-04-24T09:26:01.449Z,10.45
2023-04-24T09:28:31.697Z,10.43
2023-04-24T09:31:15.800Z,7.95
2023-04-24T09:33:55.733Z,10.40
2023-04-24T09:36:30.185Z,9.55
2023-04-24T09:38:59.924Z,6.60
2023-04-24T09:41:28.052Z,9.13
2023-04-24T09:43:56.348Z,6.40
2023-04-24T09:46:32.006Z,6.72
2023-04-24T09:48:59.702Z,7.35
2023-04-24T09:51:37.755Z,8.45
2023-04-24T09:54:05.989Z,7.78
2023-04-24T09:56:36.270Z,8.52
2023-04-24T09:59:07.669Z,9.52
2023-04-24T10:01:35.557Z,6.22
2023-04-24T10:04:03.193Z,10.90
2023-04-24T10:06:35.990Z,9.63
2023-04-24T10:09:04.740Z,8.20
2023-04-24T10:11:32.412Z,10.40
2023-04-24T10:14:00.637Z,8.18
2023-04-24T10:16:29.796Z,12.05
2023-04-24T10:18:57.437Z,10.05
2023-04-24T10:21:25.108Z,7.85
2023-04-24T10:23:52.696Z,6.60
2023-04-24T10:26:21.260Z,8.10
2023-04-24T10:28:49.192Z,7.90
2023-04-24T10:31:17.009Z,6.45
2023-04-24T10:33:44.876Z,12.40
2023-04-24T10:36:13.311Z,7.30
2023-04-24T10:38:42.437Z,8.73
2023-04-24T10:41:11.822Z,8.88
2023-04-24T10:43:41.792Z,8.45
2023-04-24T10:46:11.553Z,9.18
2023-04-24T10:48:45.103Z,7.47
2023-04-24T10:51:16.696Z,6.60
2023-04-24T10:53:44.550Z,8.25
2023-04-24T10:56:12.140Z,7.13
2023-04-24T10:58:41.384Z,7.95
2023-04-24T11:01:09.077Z,7.88
2023-04-24T11:03:38.037Z,8.07
2023-04-24T11:06:09.774Z,9.52
2023-04-24T11:08:41.367Z,11.45
2023-04-24T11:11:11.720Z,6.55
2023-04-24T11:13:57.740Z,8.70
2023-04-24T11:16:25.439Z,9.60
2023-04-24T11:18:55.464Z,7.80
2023-04-24T11:21:24.272Z,8.05
2023-04-24T11:23:51.933Z,10.95
2023-04-24T11:26:19.486Z,8.13
2023-04-24T11:28:48.097Z,7.32
2023-04-24T11:31:34.360Z,6.43
2023-04-24T11:34:07.926Z,7.28
2023-04-24T11:36:36.415Z,9.82
2023-04-24T11:39:04.061Z,8.45
2023-04-24T11:41:31.861Z,7.82
2023-04-24T11:43:59.682Z,6.20
2023-04-24T11:46:31.092Z,8.55
2023-04-24T11:48:59.307Z,8.88
2023-04-24T11:51:31.315Z,8.25
2023-04-24T11:54:09.423Z,8.43
2023-04-24T11:56:36.858Z,6.40
2023-04-24T11:59:06.052Z,8.73
2023-04-24T12:01:50.215Z,7.45
2023-04-24T12:04:18.628Z,9.35
2023-04-24T12:07:06.084Z,8.45
2023-04-24T12:09:47.391Z,6.78
2023-04-24T12:12:18.679Z,6.57
2023-04-24T12:14:47.106Z,6.47
2023-04-24T12:17:14.577Z,7.90
2023-04-24T12:19:47.329Z,8.82
2023-04-24T12:22:14.829Z,6.88
2023-04-24T12:25:01.753Z,7.90
2023-04-24T12:27:33.141Z,9.40
2023-04-24T12:30:01.106Z,10.45
2023-04-24T12:32:28.589Z,7.78
2023-04-24T12:34:57.215Z,17.15
2023-04-24T12:37:26.192Z,12.95
2023-04-24T12:40:01.387Z,16.73
2023-04-24T12:42:29.716Z,10.90
2023-04-24T12:45:01.630Z,18.63
2023-04-24T12:47:29.835Z,14.40
2023-04-24T12:49:57.588Z,17.80
2023-04-24T12:52:25.524Z,16.75
2023-04-24T12:54:55.218Z,15.48
2023-04-24T12:57:23.678Z,17.48
2023-04-24T12:59:51.591Z,11.40
2023-04-24T13:02:19.369Z,15.05
2023-04-24T13:04:47.964Z,13.00
2023-04-24T13:07:15.896Z,10.95
2023-04-24T13:09:43.754Z,12.18
2023-04-24T13:12:12.237Z,7.93
2023-04-24T13:14:39.828Z,7.70
2023-04-24T13:17:08.494Z,11.50
2023-04-24T13:19:39.479Z,7.72
2023-04-24T13:22:07.225Z,11.55
2023-04-24T13:24:35.111Z,7.88
2023-04-24T13:27:03.498Z,7.40
2023-04-24T13:29:31.051Z,8.68
2023-04-24T13:31:58.565Z,8.63
2023-04-24T13:34:26.485Z,7.88
2023-04-24T13:36:55.325Z,8.25
2023-04-24T13:39:23.078Z,9.25
2023-04-24T13:41:50.652Z,7.97
2023-04-24T13:44:18.864Z,7.60
2023-04-24T13:46:47.147Z,7.18
2023-04-24T13:49:15.433Z,8.35
2023-04-24T13:51:43.576Z,7.97
2023-04-24T13:54:11.569Z,8.50
2023-04-24T13:56:39.065Z,8.25
2023-04-24T13:59:06.748Z,11.18
2023-04-24T14:01:34.185Z,9.23
2023-04-24T14:04:01.870Z,7.75
2023-04-24T14:06:29.731Z,11.57
2023-04-24T14:08:57.317Z,8.57
2023-04-24T14:11:24.772Z,12.13
2023-04-24T14:13:52.212Z,9.65
2023-04-24T14:16:19.914Z,9.52
2023-04-24T14:18:47.376Z,7.03
2023-04-24T14:21:14.820Z,8.27
2023-04-24T14:23:42.946Z,10.88
2023-04-24T14:26:10.662Z,11.50
2023-04-24T14:28:37.996Z,8.45
2023-04-24T14:31:05.800Z,10.85
2023-04-24T14:33:33.174Z,8.85
2023-04-24T14:36:00.929Z,10.73
2023-04-24T14:38:28.583Z,8.15
2023-04-24T14:41:06.424Z,8.85
2023-04-24T14:43:36.363Z,6.47
2023-04-24T14:46:04.608Z,4.05
2023-04-24T14:48:32.037Z,6.30
2023-04-24T14:50:59.674Z,4.72
2023-04-24T14:53:27.372Z,4.57
2023-04-24T14:55:55.482Z,8.60
2023-04-24T14:58:22.947Z,4.88
2023-04-24T15:00:55.519Z,5.82
2023-04-24T15:03:24.162Z,4.53
2023-04-24T15:05:52.093Z,5.90
2023-04-24T15:08:19.585Z,5.03
2023-04-24T15:10:46.954Z,4.38
2023-04-24T15:13:14.512Z,6.50
2023-04-24T15:15:42.231Z,6.00
2023-04-24T15:18:12.539Z,6.30
2023-04-24T15:20:40.376Z,6.32
2023-04-24T15:23:07.882Z,6.85
2023-04-24T15:25:35.626Z,5.10
2023-04-24T15:28:03.021Z,7.93
2023-04-24T15:30:31.014Z,5.40
2023-04-24T15:32:58.541Z,6.25
2023-04-24T15:35:26.051Z,8.77
2023-04-24T15:37:53.535Z,9.05
2023-04-24T15:40:20.895Z,6.85
2023-04-24T15:42:48.534Z,7.18
2023-04-24T15:45:15.938Z,8.13
2023-04-24T15:47:43.700Z,6.80
2023-04-24T15:50:14.319Z,8.00
2023-04-24T15:52:42.301Z,7.25
2023-04-24T15:55:09.847Z,5.78
2023-04-24T15:57:37.351Z,6.97
2023-04-24T16:00:07.531Z,5.15
2023-04-24T16:02:39.198Z,5.22
2023-04-24T16:05:07.579Z,4.90
2023-04-24T16:07:35.468Z,3.63
2023-04-24T16:10:02.970Z,4.68
2023-04-24T16:12:30.673Z,7.70
2023-04-24T16:14:58.132Z,4.13
2023-04-24T16:17:26.479Z,4.70
2023-04-24T16:19:56.033Z,3.22
2023-04-24T16:22:33.610Z,3.75
2023-04-24T16:25:01.340Z,4.78
2023-04-24T16:27:29.240Z,4.45
2023-04-24T16:29:57.292Z,4.22
2023-04-24T16:32:25.071Z,5.45
2023-04-24T16:34:52.774Z,9.15
2023-04-24T16:37:20.605Z,5.32
2023-04-24T16:39:49.511Z,5.10
2023-04-24T16:42:17.772Z,6.43
2023-04-24T16:44:45.434Z,5.70
2023-04-24T16:47:17.308Z,6.07
2023-04-24T16:49:45.098Z,6.50
2023-04-24T16:52:13.427Z,9.85
2023-04-24T16:54:41.104Z,6.35
2023-04-24T16:57:08.673Z,5.30
2023-04-24T16:59:36.939Z,6.25
2023-04-24T17:02:04.989Z,6.43
2023-04-24T17:04:36.111Z,6.00
2023-04-24T17:07:03.853Z,7.15
2023-04-24T17:09:31.481Z,8.25
2023-04-24T17:11:59.932Z,8.60
2023-04-24T17:14:28.242Z,13.82
2023-04-24T17:16:56.114Z,9.85
2023-04-24T17:19:24.077Z,10.38
2023-04-24T17:21:52.673Z,8.80
2023-04-24T17:24:20.493Z,7.82
2023-04-24T17:26:49.002Z,9.27
2023-04-24T17:29:16.582Z,10.82
2023-04-24T17:31:44.172Z,8.75
2023-04-24T17:34:11.794Z,9.45
2023-04-24T17:36:41.591Z,10.23
2023-04-24T17:39:10.471Z,11.25
2023-04-24T17:41:38.395Z,11.50
2023-04-24T17:44:07.496Z,9.82
2023-04-24T17:46:35.584Z,9.25
2023-04-24T17:49:03.079Z,10.90
2023-04-24T17:51:30.820Z,8.13
2023-04-24T17:53:58.576Z,9.88
2023-04-24T17:56:26.424Z,10.38
2023-04-24T17:58:54.222Z,10.50
2023-04-24T18:01:22.892Z,7.82
2023-04-24T18:03:50.937Z,10.02
2023-04-24T18:06:20.756Z,10.75
2023-04-24T18:08:48.520Z,12.13
2023-04-24T18:11:19.405Z,9.23
2023-04-24T18:13:48.892Z,10.43
2023-04-24T18:16:16.314Z,12.73
2023-04-24T18:18:43.859Z,10.32
2023-04-24T18:21:14.453Z,9.75
2023-04-24T18:23:42.365Z,14.00
2023-04-24T18:26:09.900Z,12.05
2023-04-24T18:28:37.586Z,11.82
2023-04-24T18:31:07.649Z,13.05
2023-04-24T18:33:35.288Z,12.38
2023-04-24T18:36:04.493Z,13.25
2023-04-24T18:38:32.221Z,10.90
2023-04-24T18:40:59.767Z,12.23
2023-04-24T18:43:27.179Z,12.32
2023-04-24T18:45:54.564Z,14.00
2023-04-24T18:48:22.252Z,13.45
2023-04-24T18:50:49.670Z,11.55
2023-04-24T18:53:18.474Z,11.18
2023-04-24T18:55:46.247Z,10.88
2023-04-24T18:58:14.195Z,10.98
2023-04-24T19:00:42.092Z,11.93
2023-04-24T19:03:09.669Z,11.50
2023-04-24T19:05:37.301Z,12.30
2023-04-24T19:08:04.962Z,18.50
2023-04-24T19:10:35.053Z,14.57
2023-04-24T19:13:03.148Z,18.05
2023-04-24T19:15:30.885Z,15.00
2023-04-24T19:18:01.159Z,16.00
2023-04-24T19:20:30.800Z,16.08
2023-04-24T19:22:58.608Z,14.27
2023-04-24T19:25:26.141Z,17.08
2023-04-24T19:27:54.161Z,16.02
2023-04-24T19:30:21.849Z,16.92
2023-04-24T19:32:53.588Z,15.57
2023-04-24T19:35:24.208Z,18.35
2023-04-24T19:37:52.649Z,17.08
2023-04-24T19:40:20.097Z,21.00
2023-04-24T19:42:51.878Z,20.70
2023-04-24T19:45:21.064Z,19.25
2023-04-24T19:47:48.881Z,20.52
2023-04-24T19:50:17.119Z,19.02
2023-04-24T19:52:47.072Z,17.20
2023-04-24T19:55:14.873Z,19.45
2023-04-24T19:57:42.612Z,21.20
2023-04-24T20:00:10.557Z,21.40
2023-04-24T20:02:38.319Z,20.85
2023-04-24T20:05:06.376Z,20.77
2023-04-24T20:07:34.031Z,21.60
2023-04-24T20:10:01.516Z,20.77
2023-04-24T20:12:29.265Z,24.27
2023-04-24T20:14:56.864Z,22.67
2023-04-24T20:17:24.215Z,22.83
2023-04-24T20:19:51.911Z,22.65
2023-04-24T20:22:19.340Z,23.25
2023-04-24T20:24:46.887Z,23.38
2023-04-24T20:27:14.973Z,21.15
2023-04-24T20:29:42.861Z,19.20
2023-04-24T20:32:10.569Z,21.55
2023-04-24T20:34:39.203Z,20.90
2023-04-24T20:37:09.527Z,18.38
2023-04-24T20:39:38.937Z,19.95
2023-04-24T20:42:07.683Z,19.30
2023-04-24T20:44:35.090Z,19.63
2023-04-24T20:47:02.546Z,19.45
2023-04-24T20:49:30.069Z,18.70
2023-04-24T20:51:59.228Z,19.52
2023-04-24T20:54:27.436Z,21.55
2023-04-24T20:56:57.810Z,19.50
2023-04-24T20:59:28.642Z,17.75
2023-04-24T21:01:57.168Z,18.80
2023-04-24T21:04:24.745Z,19.27
2023-04-24T21:06:52.246Z,20.05
2023-04-24T21:09:19.563Z,19.73
2023-04-24T21:11:47.004Z,19.95
2023-04-24T21:14:14.376Z,19.00
2023-04-24T21:20:50.820Z,18.92
2023-04-24T21:23:18.300Z,19.52
2023-04-24T21:25:45.835Z,22.40
2023-04-24T21:28:13.309Z,20.83
2023-04-24T21:30:40.831Z,25.85
2023-04-24T21:37:15.862Z,29.15
2023-04-24T21:39:43.313Z,31.00
2023-04-24T21:42:10.676Z,29.80
2023-04-24T21:44:38.081Z,32.72
2023-04-24T21:47:05.741Z,34.20
2023-04-24T21:49:33.075Z,41.47
2023-04-24T21:52:00.630Z,40.63
2023-04-24T21:54:28.007Z,45.92
2023-04-24T21:56:55.650Z,49.13
2023-04-24T21:59:23.029Z,51.50
2023-04-24T22:01:50.559Z,57.88
2023-04-24T22:04:18.151Z,52.88
2023-04-24T22:06:45.854Z,53.95
2023-04-24T22:09:13.423Z,52.85
2023-04-24T22:11:41.854Z,53.47
2023-04-24T22:14:09.850Z,59.72
2023-04-24T22:16:37.400Z,54.80
2023-04-24T22:23:13.446Z,61.20
2023-04-24T22:25:40.895Z,59.75
2023-04-24T22:28:08.485Z,55.83
2023-04-24T22:30:35.980Z,55.03
2023-04-24T22:33:03.780Z,57.72
2023-04-24T22:35:31.250Z,55.80
2023-04-24T22:37:59.410Z,56.15
2023-04-24T22:40:27.012Z,49.42
2023-04-24T22:42:54.471Z,49.28
2023-04-24T22:45:23.785Z,50.60
2023-04-24T22:47:51.661Z,49.28
2023-04-24T22:50:20.382Z,47.85
2023-04-24T22:52:47.881Z,48.67
2023-04-24T22:55:15.353Z,45.25
2023-04-24T22:57:42.773Z,40.38
2023-04-24T23:00:13.442Z,45.65
2023-04-24T23:02:41.562Z,37.88
2023-04-24T23:05:09.691Z,38.03
2023-04-24T23:07:38.387Z,37.40
2023-04-24T23:10:06.422Z,36.65
2023-04-24T23:12:33.947Z,38.78
2023-04-24T23:15:01.473Z,37.65
2023-04-24T23:17:28.929Z,41.15
2023-04-24T23:19:56.318Z,39.97
2023-04-24T23:22:23.955Z,42.05
2023-04-24T23:24:51.514Z,43.70
2023-04-24T23:27:18.971Z,45.58
2023-04-24T23:29:48.928Z,46.15
2023-04-24T23:32:16.447Z,47.38
2023-04-24T23:38:52.015Z,46.28
2023-04-24T23:41:20.773Z,42.90
2023-04-24T23:43:48.375Z,42.22
2023-04-24T23:46:15.984Z,43.60
2023-04-24T23:48:43.412Z,42.58
2023-04-24T23:51:11.270Z,43.38
2023-04-24T23:53:38.691Z,37.40
2023-04-24T23:56:06.170Z,22.60
2023-04-24T23:58:33.476Z,16.27
